McLain, Oklahoma
Current Conditions -  °F | °C
As of 2:53 PM on Tuesday 27 Jan 2015 (Local Time) from KMKO Reporting Station
Clear Clear  
Wind Chill: 70°   Ceiling: Unl
Heat Index: 70°   Visibility: 10mi
Dew Point: 33°   Wind: 0mph
Humidity: 26%   Direction: NA
Pressure: 30.1"   Gusts: NA
Location:  35.6818°N, 95.3578°W
Report Text: KMKO 272053Z AUTO 00000KT 10SM CLR 21/01 A3010 RMK AO2 SLP191 T02110006 56025
Loading
Personal Weather Stations






























Interactive Weather Map New forecast layout! Learn more

10-Day Weather Forecast

Advertisements
Track Severe Weather on mobile